Guatrache, Argentina
Current Conditions -  °F | °C
As of 8:00 PM on Thursday 27 Nov 2014 (Local Time) from SAZN Reporting Station
Clear Clear  
Wind Chill: 77°   Ceiling: Unl
Heat Index: 77°   Visibility: 6mi
Dew Point: 30°   Wind: 12mph
Humidity: 18%   Direction: 230°SW
Pressure: 29.8"   Gusts: NA
Location:  37.67°S, 63.53°W
Report Text: SAZN 272300Z 23010KT CAVOK 25/M01 Q1009
Loading
Personal Weather Stations






























Interactive Weather Map New forecast layout! Learn more

10-Day Weather Forecast

Advertisements
Track Severe Weather on mobile